createdAt,value
2019-02-27T00:00:06.380Z,3.42
2019-02-27T00:02:32.588Z,3.72
2019-02-27T00:04:58.767Z,3.65
2019-02-27T00:07:24.937Z,2.67
2019-02-27T00:09:51.121Z,3.20
2019-02-27T00:12:19.357Z,3.33
2019-02-27T00:14:45.212Z,3.22
2019-02-27T00:17:11.384Z,3.80
2019-02-27T00:19:37.588Z,3.58
2019-02-27T00:22:03.825Z,3.60
2019-02-27T00:24:30.597Z,3.75
2019-02-27T00:26:56.877Z,3.52
2019-02-27T00:29:23.056Z,3.12
2019-02-27T00:31:49.252Z,3.60
2019-02-27T00:34:15.444Z,4.03
2019-02-27T00:36:44.884Z,3.65
2019-02-27T00:39:09.521Z,4.08
2019-02-27T00:41:35.740Z,3.92
2019-02-27T00:44:02.013Z,3.47
2019-02-27T00:46:28.262Z,3.55
2019-02-27T00:48:54.469Z,3.30
2019-02-27T00:51:20.728Z,4.42
2019-02-27T00:53:46.900Z,4.10
2019-02-27T00:56:13.149Z,4.55
2019-02-27T00:58:39.340Z,4.05
2019-02-27T01:01:05.543Z,3.87
2019-02-27T01:03:31.743Z,3.37
2019-02-27T01:05:57.969Z,3.50
2019-02-27T01:08:25.129Z,3.40
2019-02-27T01:10:52.136Z,3.40
2019-02-27T01:13:18.312Z,3.75
2019-02-27T01:15:44.817Z,4.45
2019-02-27T01:18:11.048Z,3.67
2019-02-27T01:20:37.318Z,4.60
2019-02-27T01:23:03.500Z,3.90
2019-02-27T01:25:29.715Z,4.72
2019-02-27T01:27:55.889Z,4.70
2019-02-27T01:30:24.440Z,4.67
2019-02-27T01:32:50.066Z,3.90
2019-02-27T01:35:18.747Z,4.40
2019-02-27T01:37:44.137Z,3.92
2019-02-27T01:40:10.364Z,4.37
2019-02-27T01:42:36.543Z,3.77
2019-02-27T01:45:02.709Z,5.17
2019-02-27T01:47:28.912Z,5.17
2019-02-27T01:49:55.149Z,4.12
2019-02-27T01:52:21.321Z,4.33
2019-02-27T01:54:48.849Z,5.00
2019-02-27T01:57:15.415Z,4.95
2019-02-27T01:59:41.610Z,4.75
2019-02-27T02:02:07.785Z,5.37
2019-02-27T02:04:33.971Z,5.17
2019-02-27T02:07:00.170Z,4.87
2019-02-27T02:09:26.348Z,5.12
2019-02-27T02:11:52.524Z,4.30
2019-02-27T02:14:21.005Z,4.40
2019-02-27T02:16:46.682Z,5.15
2019-02-27T02:19:12.846Z,4.20
2019-02-27T02:21:39.133Z,5.20
2019-02-27T02:24:05.298Z,4.70
2019-02-27T02:26:32.147Z,5.37
2019-02-27T02:28:59.410Z,5.22
2019-02-27T02:31:25.656Z,3.85
2019-02-27T02:33:51.832Z,4.53
2019-02-27T02:36:18.044Z,5.28
2019-02-27T02:38:44.217Z,4.37
2019-02-27T02:41:10.468Z,5.20
2019-02-27T02:43:40.182Z,5.53
2019-02-27T02:46:08.002Z,5.12
2019-02-27T02:48:32.453Z,5.37
2019-02-27T02:50:58.709Z,5.37
2019-02-27T02:53:25.941Z,4.87
2019-02-27T02:55:52.245Z,5.15
2019-02-27T02:58:18.425Z,5.10
2019-02-27T03:00:44.605Z,5.08
2019-02-27T03:03:10.809Z,4.53
2019-02-27T03:05:36.976Z,5.28
2019-02-27T03:08:03.170Z,5.20
2019-02-27T03:10:29.426Z,5.00
2019-02-27T03:12:55.612Z,5.40
2019-02-27T03:15:21.800Z,4.95
2019-02-27T03:17:53.765Z,5.40
2019-02-27T03:20:17.620Z,4.75
2019-02-27T03:22:43.783Z,4.75
2019-02-27T03:25:09.966Z,5.08
2019-02-27T03:27:36.144Z,6.05
2019-02-27T03:30:02.462Z,4.78
2019-02-27T03:32:28.665Z,5.30
2019-02-27T03:34:54.813Z,4.55
2019-02-27T03:37:21.003Z,4.65
2019-02-27T03:39:47.245Z,4.87
2019-02-27T03:42:13.448Z,5.55
2019-02-27T03:44:39.631Z,5.17
2019-02-27T03:47:05.809Z,5.65
2019-02-27T03:49:32.104Z,5.85
2019-02-27T03:52:00.496Z,4.55
2019-02-27T03:54:26.163Z,5.28
2019-02-27T03:56:52.357Z,5.22
2019-02-27T03:59:18.536Z,5.22
2019-02-27T04:01:44.716Z,5.33
2019-02-27T04:04:10.921Z,4.60
2019-02-27T04:06:37.102Z,5.70
2019-02-27T04:09:03.271Z,5.03
2019-02-27T04:11:29.491Z,5.25
2019-02-27T04:14:03.342Z,5.78
2019-02-27T04:16:28.970Z,5.22
2019-02-27T04:18:51.486Z,4.80
2019-02-27T04:21:17.750Z,4.83
2019-02-27T04:23:47.830Z,4.87
2019-02-27T04:26:11.874Z,4.58
2019-02-27T04:28:38.054Z,4.85
2019-02-27T04:31:04.329Z,4.70
2019-02-27T04:33:30.576Z,5.35
2019-02-27T04:35:56.749Z,4.22
2019-02-27T04:38:25.017Z,5.72
2019-02-27T04:40:50.899Z,4.95
2019-02-27T04:43:17.080Z,5.37
2019-02-27T04:45:43.932Z,5.75
2019-02-27T04:48:11.154Z,5.05
2019-02-27T04:50:37.416Z,5.15
2019-02-27T04:53:03.595Z,5.78
2019-02-27T04:55:29.909Z,5.50
2019-02-27T04:57:56.081Z,5.85
2019-02-27T05:00:26.091Z,5.17
2019-02-27T05:02:53.131Z,5.22
2019-02-27T05:05:18.136Z,5.28
2019-02-27T05:07:45.197Z,6.00
2019-02-27T05:10:11.453Z,5.37
2019-02-27T05:12:37.630Z,5.40
2019-02-27T05:15:04.871Z,5.03
2019-02-27T05:17:31.378Z,5.83
2019-02-27T05:19:57.597Z,5.65
2019-02-27T05:22:26.244Z,7.17
2019-02-27T05:24:51.695Z,12.98
2019-02-27T05:27:17.874Z,7.95
2019-02-27T05:29:44.082Z,9.40
2019-02-27T05:32:10.261Z,10.25
2019-02-27T05:34:36.430Z,6.37
2019-02-27T05:37:05.106Z,6.33
2019-02-27T05:39:30.607Z,5.42
2019-02-27T05:41:56.777Z,6.80
2019-02-27T05:44:22.967Z,7.30
2019-02-27T05:46:49.141Z,5.97
2019-02-27T05:49:15.318Z,5.15
2019-02-27T05:51:41.607Z,6.17
2019-02-27T05:54:08.788Z,6.10
2019-02-27T05:56:34.982Z,5.10
2019-02-27T05:59:01.404Z,4.75
2019-02-27T06:01:27.574Z,4.97
2019-02-27T06:03:53.748Z,6.03
2019-02-27T06:06:20.206Z,5.90
2019-02-27T06:08:46.373Z,5.85
2019-02-27T06:11:12.611Z,5.08
2019-02-27T06:13:38.809Z,4.83
2019-02-27T06:16:08.852Z,5.33
2019-02-27T06:18:32.880Z,5.65
2019-02-27T06:20:59.097Z,5.70
2019-02-27T06:23:25.278Z,5.30
2019-02-27T06:25:51.451Z,4.85
2019-02-27T06:28:18.830Z,5.28
2019-02-27T06:30:45.619Z,5.60
2019-02-27T06:33:12.400Z,5.10
2019-02-27T06:35:38.675Z,6.17
2019-02-27T06:38:04.848Z,5.33
2019-02-27T06:40:31.048Z,6.17
2019-02-27T06:42:57.321Z,5.67
2019-02-27T06:45:23.508Z,7.00
2019-02-27T06:47:49.688Z,5.97
2019-02-27T06:50:15.897Z,5.92
2019-02-27T06:52:42.512Z,6.53
2019-02-27T06:55:09.249Z,6.00
2019-02-27T06:57:35.432Z,6.08
2019-02-27T07:00:03.010Z,5.33
2019-02-27T07:02:29.377Z,6.05
2019-02-27T07:04:55.574Z,5.80
2019-02-27T07:07:21.738Z,6.35
2019-02-27T07:09:47.989Z,6.15
2019-02-27T07:12:14.167Z,6.80
2019-02-27T07:14:40.347Z,4.95
2019-02-27T07:17:06.557Z,5.85
2019-02-27T07:19:32.766Z,5.92
2019-02-27T07:21:58.942Z,5.87
2019-02-27T07:24:25.136Z,6.20
2019-02-27T07:26:51.311Z,5.42
2019-02-27T07:29:21.570Z,7.72
2019-02-27T07:31:45.510Z,6.28
2019-02-27T07:34:14.208Z,6.37
2019-02-27T07:36:39.597Z,7.65
2019-02-27T07:39:05.810Z,6.85
2019-02-27T07:41:31.990Z,7.47
2019-02-27T07:43:58.197Z,8.40
2019-02-27T07:46:24.372Z,6.53
2019-02-27T07:48:50.546Z,6.20
2019-02-27T07:51:16.727Z,6.83
2019-02-27T07:53:42.907Z,6.92
2019-02-27T07:56:09.117Z,6.72
2019-02-27T07:58:35.302Z,7.40
2019-02-27T08:01:01.469Z,6.58
2019-02-27T08:03:27.680Z,6.47
2019-02-27T08:05:53.850Z,6.12
2019-02-27T08:08:23.238Z,7.50
2019-02-27T08:10:48.019Z,6.55
2019-02-27T08:13:14.190Z,6.40
2019-02-27T08:15:40.368Z,5.12
2019-02-27T08:18:06.740Z,5.70
2019-02-27T08:20:33.109Z,6.37
2019-02-27T08:22:59.311Z,6.33
2019-02-27T08:25:25.513Z,7.30
2019-02-27T08:27:51.694Z,6.25
2019-02-27T08:30:17.925Z,6.12
2019-02-27T08:32:44.123Z,7.12
2019-02-27T08:35:10.294Z,7.00
2019-02-27T08:37:36.473Z,6.42
2019-02-27T08:40:02.834Z,5.42
2019-02-27T08:42:29.012Z,7.28
2019-02-27T08:44:55.194Z,5.83
2019-02-27T08:47:21.397Z,5.45
2019-02-27T08:49:47.655Z,7.30
2019-02-27T08:52:16.096Z,6.17
2019-02-27T08:54:41.748Z,6.90
2019-02-27T08:57:07.923Z,6.20
2019-02-27T08:59:34.122Z,8.23
2019-02-27T09:02:02.044Z,10.23
2019-02-27T09:04:28.221Z,8.50
2019-02-27T09:06:54.393Z,8.28
2019-02-27T09:09:20.632Z,6.78
2019-02-27T09:11:46.786Z,8.00
2019-02-27T09:14:12.966Z,8.33
2019-02-27T09:16:39.161Z,6.37
2019-02-27T09:19:09.277Z,6.78
2019-02-27T09:21:33.277Z,6.03
2019-02-27T09:23:59.479Z,7.90
2019-02-27T09:26:25.649Z,10.10
2019-02-27T09:28:51.831Z,8.18
2019-02-27T09:31:18.036Z,9.28
2019-02-27T09:33:44.213Z,6.87
2019-02-27T09:36:10.987Z,6.65
2019-02-27T09:38:37.296Z,8.50
2019-02-27T09:41:03.468Z,11.38
2019-02-27T09:43:29.638Z,9.40
2019-02-27T09:45:55.841Z,8.88
2019-02-27T09:48:22.020Z,9.68
2019-02-27T09:50:49.109Z,8.08
2019-02-27T09:53:15.495Z,8.13
2019-02-27T09:55:41.672Z,8.83
2019-02-27T09:58:11.189Z,10.23
2019-02-27T10:00:35.818Z,6.90
2019-02-27T10:03:01.986Z,11.25
2019-02-27T10:05:28.158Z,6.85
2019-02-27T10:07:54.367Z,9.23
2019-02-27T10:10:20.602Z,7.85
2019-02-27T10:12:46.779Z,8.93
2019-02-27T10:15:12.985Z,7.50
2019-02-27T10:17:41.075Z,10.35
2019-02-27T10:20:07.153Z,8.00
2019-02-27T10:22:33.360Z,9.95
2019-02-27T10:24:59.535Z,9.10
2019-02-27T10:27:28.836Z,8.60
2019-02-27T10:29:53.641Z,7.50
2019-02-27T10:32:19.847Z,7.22
2019-02-27T10:34:46.026Z,8.08
2019-02-27T10:37:13.294Z,8.20
2019-02-27T10:39:40.161Z,7.62
2019-02-27T10:42:06.347Z,7.75
2019-02-27T10:44:33.962Z,8.38
2019-02-27T10:47:00.785Z,7.62
2019-02-27T10:49:27.129Z,7.78
2019-02-27T10:51:53.324Z,6.42
2019-02-27T10:54:19.498Z,7.58
2019-02-27T10:56:45.676Z,7.00
2019-02-27T10:59:11.978Z,7.67
2019-02-27T11:01:38.149Z,5.92
2019-02-27T11:04:04.328Z,7.37
2019-02-27T11:06:34.066Z,7.87
2019-02-27T11:08:58.500Z,7.12
2019-02-27T11:11:24.669Z,6.78
2019-02-27T11:13:52.104Z,7.35
2019-02-27T11:16:21.289Z,8.08
2019-02-27T11:18:46.666Z,5.95
2019-02-27T11:21:12.837Z,6.20
2019-02-27T11:23:41.113Z,6.53
2019-02-27T11:26:06.947Z,6.80
2019-02-27T11:28:33.147Z,6.30
2019-02-27T11:30:59.334Z,6.40
2019-02-27T11:33:26.177Z,6.87
2019-02-27T11:35:52.391Z,7.22
2019-02-27T11:38:18.570Z,7.20
2019-02-27T11:40:44.765Z,6.40
2019-02-27T11:43:10.944Z,6.90
2019-02-27T11:45:37.126Z,7.03
2019-02-27T11:48:03.340Z,6.92
2019-02-27T11:50:29.518Z,5.85
2019-02-27T11:52:55.688Z,5.95
2019-02-27T11:55:21.902Z,6.47
2019-02-27T11:57:48.070Z,6.25
2019-02-27T12:00:14.333Z,7.15
2019-02-27T12:02:40.536Z,7.28
2019-02-27T12:05:06.719Z,6.53
2019-02-27T12:07:32.895Z,6.78
2019-02-27T12:09:59.177Z,6.62
2019-02-27T12:12:25.365Z,6.50
2019-02-27T12:14:51.544Z,6.17
2019-02-27T12:17:17.753Z,6.10
2019-02-27T12:19:45.207Z,5.97
2019-02-27T12:22:11.572Z,6.53
2019-02-27T12:24:37.747Z,6.37
2019-02-27T12:27:03.925Z,6.25
2019-02-27T12:29:30.140Z,5.97
2019-02-27T12:31:56.326Z,5.70
2019-02-27T12:34:22.506Z,6.25
2019-02-27T12:36:49.945Z,5.70
2019-02-27T12:39:18.639Z,5.72
2019-02-27T12:41:44.569Z,6.62
2019-02-27T12:44:10.759Z,6.17
2019-02-27T12:46:37.141Z,6.42
2019-02-27T12:49:03.426Z,6.00
2019-02-27T12:51:29.631Z,6.70
2019-02-27T12:53:55.809Z,5.67
2019-02-27T12:56:21.997Z,5.62
2019-02-27T12:58:48.274Z,6.00
2019-02-27T13:01:16.323Z,6.45
2019-02-27T13:03:43.058Z,6.35
2019-02-27T13:06:09.345Z,5.12
2019-02-27T13:08:35.619Z,6.92
2019-02-27T13:11:01.790Z,6.15
2019-02-27T13:13:28.018Z,5.50
2019-02-27T13:15:54.198Z,5.30
2019-02-27T13:18:20.426Z,5.75
2019-02-27T13:20:46.632Z,6.30
2019-02-27T13:23:12.807Z,5.20
2019-02-27T13:25:38.980Z,5.58
2019-02-27T13:28:05.175Z,8.03
2019-02-27T13:30:31.340Z,5.65
2019-02-27T13:33:00.599Z,5.62
2019-02-27T13:35:25.431Z,5.97
2019-02-27T13:37:51.616Z,5.90
2019-02-27T13:40:17.796Z,5.42
2019-02-27T13:42:43.998Z,6.67
2019-02-27T13:45:12.631Z,6.15
2019-02-27T13:47:38.093Z,5.97
2019-02-27T13:50:04.289Z,5.83
2019-02-27T13:52:30.461Z,6.55
2019-02-27T13:54:56.629Z,5.80
2019-02-27T13:57:25.702Z,6.42
2019-02-27T13:59:50.738Z,5.42
2019-02-27T14:02:16.922Z,5.10
2019-02-27T14:04:43.124Z,6.10
2019-02-27T14:07:09.305Z,5.85
2019-02-27T14:09:35.548Z,6.15
2019-02-27T14:12:01.751Z,21.87
2019-02-27T14:14:27.925Z,22.45
2019-02-27T14:16:54.094Z,25.27
2019-02-27T14:19:21.353Z,25.80
2019-02-27T14:21:48.317Z,27.67
2019-02-27T14:24:14.501Z,26.95
2019-02-27T14:26:41.508Z,27.00
2019-02-27T14:29:08.450Z,25.60
2019-02-27T14:31:34.634Z,25.12
2019-02-27T14:34:00.839Z,23.47
2019-02-27T14:36:27.022Z,23.45
2019-02-27T14:38:55.893Z,23.10
2019-02-27T14:41:21.203Z,19.87
2019-02-27T14:43:47.375Z,20.90
2019-02-27T14:46:13.572Z,20.88
2019-02-27T14:48:39.861Z,20.88
2019-02-27T14:51:07.903Z,27.80
2019-02-27T14:53:33.946Z,29.85
2019-02-27T14:56:00.167Z,30.55
2019-02-27T14:58:26.382Z,30.75
2019-02-27T15:00:52.555Z,27.32
2019-02-27T15:03:18.748Z,26.33
2019-02-27T15:05:45.318Z,28.17
2019-02-27T15:08:11.706Z,27.77
2019-02-27T15:10:40.510Z,25.20
2019-02-27T15:13:05.826Z,24.85
2019-02-27T15:15:32.011Z,22.25
2019-02-27T15:17:58.298Z,22.73
2019-02-27T15:20:24.470Z,22.98
2019-02-27T15:22:52.509Z,27.42
2019-02-27T15:25:18.568Z,22.27
2019-02-27T15:27:44.737Z,22.22
2019-02-27T15:30:13.273Z,23.50
2019-02-27T15:32:38.830Z,23.77
2019-02-27T15:35:05.010Z,22.93
2019-02-27T15:37:31.190Z,21.87
2019-02-27T15:39:57.417Z,21.73
2019-02-27T15:42:23.599Z,18.35
2019-02-27T15:44:49.781Z,19.87
2019-02-27T15:47:15.978Z,20.30
2019-02-27T15:49:42.213Z,20.30
2019-02-27T15:52:08.386Z,19.32
2019-02-27T15:54:34.597Z,19.50
2019-02-27T15:57:00.781Z,20.57
2019-02-27T15:59:27.029Z,18.42
2019-02-27T16:01:53.263Z,18.92
2019-02-27T16:04:21.257Z,19.20
2019-02-27T16:06:47.306Z,20.52
2019-02-27T16:09:15.390Z,16.70
2019-02-27T16:11:41.422Z,17.17
2019-02-27T16:14:10.161Z,19.00
2019-02-27T16:16:35.506Z,17.10
2019-02-27T16:19:01.776Z,16.80
2019-02-27T16:21:27.949Z,17.10
2019-02-27T16:23:54.141Z,15.20
2019-02-27T16:26:20.323Z,16.42
2019-02-27T16:28:48.987Z,16.77
2019-02-27T16:31:14.518Z,15.08
2019-02-27T16:33:40.690Z,16.87
2019-02-27T16:36:06.873Z,17.95
2019-02-27T16:38:33.086Z,14.47
2019-02-27T16:40:59.256Z,15.35
2019-02-27T16:43:25.421Z,15.58
2019-02-27T16:45:51.625Z,14.35
2019-02-27T16:48:17.879Z,13.93
2019-02-27T16:50:45.579Z,14.50
2019-02-27T16:53:16.246Z,15.83
2019-02-27T16:55:39.839Z,14.78
2019-02-27T16:58:06.057Z,15.98
2019-02-27T17:00:32.258Z,12.88
2019-02-27T17:02:58.472Z,12.47
2019-02-27T17:05:24.598Z,15.28
2019-02-27T17:07:50.912Z,13.55
2019-02-27T17:10:17.756Z,15.18
2019-02-27T17:12:44.953Z,14.13
2019-02-27T17:15:11.155Z,13.78
2019-02-27T17:17:37.430Z,12.75
2019-02-27T17:20:03.612Z,13.58
2019-02-27T17:22:32.658Z,12.30
2019-02-27T17:24:57.685Z,12.80
2019-02-27T17:27:23.897Z,13.18
2019-02-27T17:29:50.087Z,12.03
2019-02-27T17:32:16.264Z,12.98
2019-02-27T17:34:42.455Z,13.18
2019-02-27T17:37:08.638Z,23.20
2019-02-27T17:39:34.818Z,12.90
2019-02-27T17:42:01.027Z,13.58
2019-02-27T17:44:27.196Z,13.95
2019-02-27T17:46:54.689Z,12.23
2019-02-27T17:49:22.163Z,13.48
2019-02-27T17:51:49.621Z,13.55
2019-02-27T17:54:16.161Z,21.17
2019-02-27T17:56:42.356Z,26.35
2019-02-27T17:59:09.377Z,47.20
2019-02-27T18:01:35.804Z,23.15
2019-02-27T18:04:02.003Z,23.70
2019-02-27T18:06:28.178Z,15.18
2019-02-27T18:08:54.385Z,16.57
2019-02-27T18:11:21.330Z,15.45
2019-02-27T18:13:47.796Z,14.45
2019-02-27T18:16:14.013Z,13.58
2019-02-27T18:18:43.313Z,10.48
2019-02-27T18:21:08.302Z,12.63
2019-02-27T18:23:34.471Z,11.25
2019-02-27T18:26:00.684Z,12.35
2019-02-27T18:28:26.891Z,10.88
2019-02-27T18:30:53.839Z,10.72
2019-02-27T18:33:20.207Z,12.35
2019-02-27T18:35:46.384Z,10.63
2019-02-27T18:38:12.620Z,11.38
2019-02-27T18:40:38.806Z,11.65
2019-02-27T18:43:04.986Z,10.60
2019-02-27T18:45:31.191Z,11.63
2019-02-27T18:47:58.647Z,11.63
2019-02-27T18:50:25.765Z,12.53
2019-02-27T18:52:52.060Z,9.58
2019-02-27T18:55:18.236Z,10.68
2019-02-27T18:57:47.268Z,10.60
2019-02-27T19:00:12.439Z,10.28
2019-02-27T19:02:38.747Z,10.82
2019-02-27T19:05:06.734Z,12.60
2019-02-27T19:07:33.379Z,10.13
2019-02-27T19:09:59.815Z,19.57
2019-02-27T19:12:28.598Z,25.00
2019-02-27T19:14:54.300Z,29.12
2019-02-27T19:17:20.504Z,25.27
2019-02-27T19:19:48.917Z,13.65
2019-02-27T19:22:15.666Z,14.00
2019-02-27T19:24:42.052Z,11.80
2019-02-27T19:27:10.481Z,10.63
2019-02-27T19:29:36.910Z,9.95
2019-02-27T19:32:03.073Z,10.32
2019-02-27T19:34:29.253Z,9.08
2019-02-27T19:36:55.458Z,9.05
2019-02-27T19:39:22.469Z,12.25
2019-02-27T19:41:48.780Z,9.75
2019-02-27T19:44:15.022Z,9.75
2019-02-27T19:46:42.312Z,9.18
2019-02-27T19:49:09.102Z,10.00
2019-02-27T19:51:35.289Z,8.35
2019-02-27T19:54:01.664Z,9.20
2019-02-27T19:56:27.847Z,10.72
2019-02-27T19:58:54.106Z,9.73
2019-02-27T20:01:20.289Z,10.03
2019-02-27T20:03:47.090Z,11.33
2019-02-27T20:06:13.425Z,10.53
2019-02-27T20:08:44.478Z,10.65
2019-02-27T20:11:07.801Z,10.60
2019-02-27T20:13:33.979Z,10.85
2019-02-27T20:16:00.153Z,10.30
2019-02-27T20:18:26.434Z,10.68
2019-02-27T20:20:52.611Z,10.98
2019-02-27T20:23:18.796Z,11.12
2019-02-27T20:25:45.015Z,11.15
2019-02-27T20:28:11.268Z,12.13
2019-02-27T20:30:37.441Z,12.33
2019-02-27T20:33:03.656Z,13.00
2019-02-27T20:35:31.134Z,12.80
2019-02-27T20:37:57.316Z,13.15
2019-02-27T20:40:23.610Z,13.32
2019-02-27T20:42:54.971Z,14.43
2019-02-27T20:45:18.693Z,14.55
2019-02-27T20:47:44.936Z,13.98
2019-02-27T20:50:11.110Z,13.50
2019-02-27T20:52:37.278Z,12.28
2019-02-27T20:55:03.520Z,10.75
2019-02-27T20:57:29.704Z,11.30
2019-02-27T21:00:00.651Z,10.32
2019-02-27T21:02:23.850Z,11.45
2019-02-27T21:04:50.019Z,11.60
2019-02-27T21:07:22.204Z,11.50
2019-02-27T21:09:45.193Z,10.45
2019-02-27T21:12:12.033Z,12.75
2019-02-27T21:14:38.206Z,12.07
2019-02-27T21:17:04.491Z,11.33
2019-02-27T21:19:30.662Z,11.10
2019-02-27T21:21:56.834Z,10.05
2019-02-27T21:24:23.025Z,11.48
2019-02-27T21:26:49.203Z,10.93
2019-02-27T21:29:15.487Z,11.63
2019-02-27T21:31:41.741Z,11.70
2019-02-27T21:34:07.915Z,10.70
2019-02-27T21:36:36.586Z,11.28
2019-02-27T21:39:02.022Z,11.25
2019-02-27T21:41:28.197Z,12.00
2019-02-27T21:43:56.583Z,9.88
2019-02-27T21:46:22.280Z,11.05
2019-02-27T21:48:48.515Z,10.65
2019-02-27T21:51:14.769Z,14.28
2019-02-27T21:53:40.941Z,11.68
2019-02-27T21:56:07.106Z,9.70
2019-02-27T21:58:33.362Z,9.80
2019-02-27T22:00:59.528Z,9.45
2019-02-27T22:03:25.865Z,11.12
2019-02-27T22:05:52.965Z,12.00
2019-02-27T22:08:19.984Z,10.58
2019-02-27T22:10:47.272Z,10.43
2019-02-27T22:13:13.472Z,11.05
2019-02-27T22:15:39.659Z,11.00
2019-02-27T22:18:08.288Z,9.90
2019-02-27T22:20:33.830Z,10.35
2019-02-27T22:23:00.003Z,10.48
2019-02-27T22:25:30.206Z,10.95
2019-02-27T22:27:54.324Z,9.45
2019-02-27T22:30:20.503Z,9.95
2019-02-27T22:32:48.182Z,10.50
2019-02-27T22:35:14.596Z,11.22
2019-02-27T22:37:40.779Z,10.70
2019-02-27T22:40:07.505Z,10.60
2019-02-27T22:42:33.831Z,11.08
2019-02-27T22:45:00.636Z,10.95
2019-02-27T22:47:27.985Z,12.10
2019-02-27T22:49:54.157Z,11.03
2019-02-27T22:52:20.895Z,12.40
2019-02-27T22:54:47.194Z,11.12
2019-02-27T22:57:13.377Z,12.58
2019-02-27T22:59:39.677Z,10.72
2019-02-27T23:02:05.841Z,11.57
2019-02-27T23:04:32.012Z,12.53
2019-02-27T23:06:58.242Z,13.83
2019-02-27T23:09:25.692Z,12.80
2019-02-27T23:11:52.294Z,13.40
2019-02-27T23:14:19.641Z,12.70
2019-02-27T23:16:46.866Z,12.88
2019-02-27T23:19:13.178Z,11.45
2019-02-27T23:21:39.333Z,11.33
2019-02-27T23:24:07.114Z,12.80
2019-02-27T23:26:33.434Z,10.55
2019-02-27T23:28:59.639Z,10.50
2019-02-27T23:31:25.817Z,11.10
2019-02-27T23:33:51.999Z,11.48
2019-02-27T23:36:18.216Z,10.08
2019-02-27T23:38:44.378Z,9.23
2019-02-27T23:41:10.571Z,11.18
2019-02-27T23:43:36.777Z,11.25
2019-02-27T23:46:02.954Z,10.63
2019-02-27T23:48:29.217Z,10.48
2019-02-27T23:50:55.409Z,9.40
2019-02-27T23:53:24.454Z,11.10
2019-02-27T23:55:49.500Z,11.73
2019-02-27T23:58:15.696Z,9.78
